Time;durP1;ratioP1;P1;durP2;ratioP2;P2;SDS_P1;SDS_P2;PMS_P1;PMS_P2;Temp;Humidity;BMP_temperature;BMP_pressure;BME280_temperature;BME280_humidity;BME280_pressure;Samples;Min_cycle;Max_cycle;Signal;HPM_P1;HPM_P2
2022/07/23 00:00:26;;;;;;;7.67;6.87;;;27.90;58.90;;;-142.21;76.50;112049.66;5112889;28;20229;-71
2022/07/23 00:02:54;;;;;;;8.03;7.30;;;27.90;58.70;;;-142.21;76.39;112049.66;5112286;28;20677;-71
2022/07/23 00:05:22;;;;;;;9.83;7.30;;;27.90;58.60;;;-142.21;76.29;112049.66;5113491;28;20324;-71
2022/07/23 00:07:49;;;;;;;7.57;6.90;;;28.00;58.40;;;-142.21;75.22;112049.66;5112502;28;20653;-72
2022/07/23 00:10:16;;;;;;;7.23;6.53;;;28.00;58.20;;;-142.21;74.91;112049.66;5112730;28;20712;-71
2022/07/23 00:12:44;;;;;;;8.90;7.50;;;28.10;58.10;;;-142.21;74.58;112049.66;5113071;28;20289;-71
2022/07/23 00:15:12;;;;;;;7.70;7.00;;;28.10;57.80;;;-142.21;73.13;112049.66;5112669;28;20193;-71
2022/07/23 00:17:39;;;;;;;8.03;7.03;;;28.10;57.60;;;-142.21;72.54;112049.66;5112530;28;20232;-72
2022/07/23 00:20:09;;;;;;;7.50;6.80;;;28.10;57.40;;;-142.21;71.65;112049.66;5112300;28;20227;-72
2022/07/23 00:22:36;;;;;;;6.87;6.27;;;28.20;57.40;;;-142.21;70.65;112049.66;5113161;28;20293;-71
2022/07/23 00:25:04;;;;;;;7.20;6.50;;;28.20;57.00;;;-142.21;69.98;112049.66;5112166;28;20742;-70
2022/07/23 00:27:31;;;;;;;7.30;6.30;;;28.20;56.70;;;-142.21;67.92;112049.66;5112595;28;20543;-71
2022/07/23 00:30:00;;;;;;;9.03;6.60;;;28.30;56.30;;;-142.21;66.98;112049.66;5112207;28;20210;-72
2022/07/23 00:32:27;;;;;;;7.23;6.57;;;28.30;56.00;;;-142.21;66.25;112049.66;5112560;28;20226;-72
2022/07/23 00:34:54;;;;;;;9.30;5.93;;;28.20;55.80;;;-142.21;66.04;112049.66;5111793;28;20200;-72
2022/07/23 00:37:23;;;;;;;8.03;6.67;;;28.10;56.60;;;-142.21;66.02;112049.66;5112278;28;20309;-71
2022/07/23 00:39:50;;;;;;;6.73;5.93;;;28.00;56.00;;;-142.21;65.34;112049.66;5111969;28;20205;-71
2022/07/23 00:42:17;;;;;;;7.00;6.13;;;28.00;56.10;;;-142.21;64.62;112049.66;5112871;28;20228;-72
2022/07/23 00:44:44;;;;;;;7.80;6.00;;;28.00;56.60;;;-142.21;64.51;112049.66;5112600;28;20212;-71
2022/07/23 00:47:11;;;;;;;6.83;5.87;;;27.90;55.90;;;-142.21;64.08;112049.66;5111641;28;20192;-71
2022/07/23 00:49:38;;;;;;;7.10;6.30;;;27.90;55.80;;;-142.21;63.71;112049.66;5112300;28;20702;-71
2022/07/23 00:52:06;;;;;;;7.10;6.40;;;27.80;55.80;;;-142.21;64.11;112049.66;5111886;28;20213;-72
2022/07/23 00:54:36;;;;;;;6.83;6.10;;;27.70;55.90;;;-142.21;63.58;112049.66;5112360;28;20226;-71
2022/07/23 00:57:04;;;;;;;7.00;5.77;;;27.70;55.80;;;-142.21;63.67;112049.66;5111682;28;20289;-71
2022/07/23 00:59:31;;;;;;;7.13;6.43;;;27.70;55.80;;;-142.21;63.54;112049.66;5112470;28;20569;-70
2022/07/23 01:01:58;;;;;;;5.93;5.40;;;27.70;55.70;;;-142.21;63.44;112049.66;5112227;28;20251;-70
2022/07/23 01:04:25;;;;;;;6.63;5.87;;;27.70;55.70;;;-142.21;63.36;112049.66;5112306;28;20723;-72
2022/07/23 01:06:53;;;;;;;6.17;5.67;;;27.80;55.60;;;-142.21;63.32;112049.66;5112120;28;20226;-71
2022/07/23 01:09:21;;;;;;;6.30;5.70;;;27.80;55.50;;;-142.21;63.11;112049.66;5112496;28;20240;-72
2022/07/23 01:11:51;;;;;;;13.10;5.53;;;27.90;55.30;;;-142.21;62.78;112049.66;5112803;28;20203;-72
2022/07/23 01:14:19;;;;;;;6.40;5.80;;;27.80;55.10;;;-142.21;62.76;112049.66;5111920;28;20626;-71
2022/07/23 01:16:50;;;;;;;6.40;5.90;;;27.80;55.00;;;-142.21;62.53;112049.66;5097157;28;20249;-71
2022/07/23 01:19:18;;;;;;;6.47;5.87;;;27.90;55.00;;;-142.21;61.97;112049.66;5112017;28;20199;-71
2022/07/23 01:21:48;;;;;;;6.57;5.73;;;27.90;54.70;;;-142.21;61.49;112049.66;5114389;28;20314;-70
2022/07/23 01:24:19;;;;;;;6.20;5.60;;;27.90;54.60;;;-142.21;61.66;112049.66;5116556;28;20595;-73
2022/07/23 01:26:48;;;;;;;6.47;5.87;;;27.90;54.70;;;-142.21;62.08;112049.66;5116387;28;20192;-71
2022/07/23 01:29:16;;;;;;;6.30;5.77;;;27.80;54.70;;;-142.21;62.41;112049.66;5115670;28;20207;-71
2022/07/23 01:31:44;;;;;;;6.27;5.67;;;27.80;54.70;;;-142.21;63.43;112049.66;5115750;28;20697;-71
2022/07/23 01:34:12;;;;;;;6.40;5.80;;;27.80;54.90;;;-142.21;64.37;112049.66;5115457;28;20208;-71
2022/07/23 01:36:39;;;;;;;5.73;4.90;;;27.90;55.20;;;-142.21;64.90;112049.66;5116467;28;20201;-71
2022/07/23 01:39:08;;;;;;;6.53;5.93;;;27.90;55.20;;;-142.21;65.51;112049.66;5115361;28;20292;-72
2022/07/23 01:41:37;;;;;;;6.13;5.63;;;27.90;55.20;;;-142.21;65.65;112049.66;5116460;28;20624;-71
2022/07/23 01:44:04;;;;;;;6.03;5.43;;;27.90;55.30;;;-142.21;65.77;112049.66;5115230;28;20628;-71
2022/07/23 01:46:31;;;;;;;6.60;5.80;;;27.90;55.30;;;-142.21;66.11;112049.66;5115792;28;20286;-72
2022/07/23 01:48:58;;;;;;;6.90;5.80;;;27.90;55.50;;;-142.21;66.69;112049.66;5114996;28;20203;-72
2022/07/23 01:51:25;;;;;;;6.70;6.13;;;27.80;55.50;;;-142.21;67.82;112049.66;5116044;28;20223;-70
2022/07/23 01:53:52;;;;;;;6.70;6.00;;;27.80;55.70;;;-142.21;68.03;112049.66;5115143;28;20207;-71
2022/07/23 01:56:20;;;;;;;7.10;6.40;;;27.80;55.70;;;-142.21;68.11;112049.66;5115750;28;20196;-72
2022/07/23 01:58:49;;;;;;;7.17;6.23;;;27.80;55.70;;;-142.21;66.40;112049.66;5114677;28;20200;-72
2022/07/23 02:01:16;;;;;;;6.60;5.90;;;27.80;55.30;;;-142.21;66.52;112049.66;5115018;28;20758;-71
2022/07/23 02:03:43;;;;;;;6.93;6.33;;;27.80;55.30;;;-142.21;67.26;112049.66;5115498;28;20198;-72
2022/07/23 02:06:10;;;;;;;6.17;5.50;;;27.80;55.50;;;-142.21;67.60;112049.66;5115164;28;20295;-70
2022/07/23 02:08:37;;;;;;;6.90;5.87;;;27.70;56.10;;;-142.21;67.93;112049.66;5115566;28;20516;-72
2022/07/23 02:11:05;;;;;;;6.13;5.20;;;27.70;55.70;;;-142.21;68.53;112049.66;5114939;28;20200;-73
2022/07/23 02:13:32;;;;;;;6.60;6.00;;;27.70;55.70;;;-142.21;69.52;112049.66;5114570;28;20677;-71
2022/07/23 02:16:00;;;;;;;7.13;6.27;;;27.60;55.90;;;-142.21;70.64;112049.66;5114956;28;20619;-71
2022/07/23 02:18:27;;;;;;;6.37;5.77;;;27.60;56.30;;;-142.21;70.89;112049.66;5113567;28;20295;-71
2022/07/23 02:20:54;;;;;;;6.43;5.83;;;27.50;56.40;;;-142.21;71.50;112049.66;5114878;28;20310;-71
2022/07/23 02:23:21;;;;;;;6.37;5.67;;;27.40;56.60;;;-142.21;72.60;112049.66;5115313;28;20540;-71
2022/07/23 02:25:49;;;;;;;6.83;6.13;;;27.40;56.80;;;-142.21;73.20;112049.66;5115114;28;20201;-71
2022/07/23 02:28:16;;;;;;;6.70;6.00;;;27.30;57.20;;;-142.21;73.31;112049.66;5114386;28;20210;-72
2022/07/23 02:30:43;;;;;;;7.53;6.83;;;27.30;57.20;;;-142.21;74.00;112049.66;5114119;28;20224;-71
2022/07/23 02:33:12;;;;;;;6.73;5.60;;;27.20;57.40;;;-142.21;74.74;112049.66;5113104;28;20673;-71
2022/07/23 02:35:39;;;;;;;7.77;6.60;;;27.10;57.70;;;-142.21;75.91;112049.66;5115281;28;20238;-72
2022/07/23 02:38:06;;;;;;;6.53;5.93;;;27.10;57.90;;;-142.21;75.12;112049.66;5114153;28;20640;-71
2022/07/23 02:40:33;;;;;;;6.40;5.87;;;26.90;57.90;;;-142.21;75.71;112049.66;5112977;28;20215;-72
2022/07/23 02:43:00;;;;;;;7.07;6.40;;;26.80;58.10;;;-142.21;77.35;112049.66;5113686;28;20218;-73
2022/07/23 02:45:27;;;;;;;7.13;6.50;;;26.50;58.90;;;-142.21;78.16;112049.66;5114542;28;20677;-72
2022/07/23 02:47:54;;;;;;;6.60;6.00;;;26.40;59.30;;;-142.21;78.82;112049.66;5114631;28;20210;-71
2022/07/23 02:50:25;;;;;;;6.93;6.23;;;26.40;59.40;;;-142.21;79.96;112049.66;5096766;28;20202;-72
2022/07/23 02:52:53;;;;;;;7.50;6.10;;;26.40;59.60;;;-142.21;79.80;112049.66;5115001;28;20192;-71
2022/07/23 02:55:20;;;;;;;8.30;6.37;;;26.40;59.60;;;-142.21;79.16;112049.66;5114053;28;20224;-71
2022/07/23 02:57:49;;;;;;;6.53;5.93;;;26.40;59.50;;;-142.21;79.05;112049.66;5114236;28;20203;-71
2022/07/23 03:00:17;;;;;;;6.63;5.90;;;26.40;59.50;;;-142.21;79.55;112049.66;5113807;28;20204;-72
2022/07/23 03:02:44;;;;;;;6.73;6.00;;;26.50;59.60;;;-142.21;79.50;112049.66;5114428;28;20311;-71
2022/07/23 03:05:11;;;;;;;7.07;6.37;;;26.50;59.60;;;-142.21;78.14;112049.66;5113268;28;20206;-71
2022/07/23 03:07:40;;;;;;;6.97;6.37;;;26.50;59.40;;;-142.21;77.89;112049.66;5113846;28;20206;-72
2022/07/23 03:10:08;;;;;;;6.93;6.03;;;26.50;59.30;;;-142.21;75.98;112049.66;5113462;28;20302;-71
2022/07/23 03:12:35;;;;;;;6.27;5.67;;;26.50;58.70;;;-142.21;75.24;112049.66;5113924;28;20664;-71
2022/07/23 03:15:02;;;;;;;6.00;5.47;;;26.60;58.40;;;-142.21;74.47;112049.66;5113561;28;20198;-71
2022/07/23 03:17:29;;;;;;;7.97;6.00;;;26.60;58.40;;;-142.21;75.18;112049.66;5114294;28;20294;-71
2022/07/23 03:19:56;;;;;;;6.73;5.93;;;26.50;58.40;;;-142.21;75.36;112049.66;5113595;28;20207;-71
2022/07/23 03:22:23;;;;;;;8.10;5.93;;;26.50;58.30;;;-142.21;75.53;112049.66;5113979;28;20223;-71
2022/07/23 03:24:55;;;;;;;7.33;6.13;;;26.40;58.70;;;-142.21;77.13;112049.66;5113752;28;20214;-71
2022/07/23 03:27:22;;;;;;;6.43;5.77;;;26.40;59.00;;;-142.21;76.94;112049.66;5113926;28;20621;-71
2022/07/23 03:29:51;;;;;;;6.87;5.80;;;26.40;59.00;;;-142.21;77.19;112049.66;5113862;28;20288;-72
2022/07/23 03:32:18;;;;;;;5.70;5.20;;;26.40;58.90;;;-142.21;77.68;112049.66;5112931;28;20231;-72
2022/07/23 03:34:45;;;;;;;7.00;5.73;;;26.40;59.00;;;-142.21;77.00;112049.66;5114072;28;20206;-72
2022/07/23 03:37:13;;;;;;;6.27;5.67;;;26.40;58.80;;;-142.21;77.09;112049.66;5112937;28;20196;-72
2022/07/23 03:39:40;;;;;;;6.30;5.70;;;26.40;58.90;;;-142.21;77.50;112049.66;5113340;28;20286;-71
2022/07/23 03:42:09;;;;;;;6.27;5.77;;;26.40;58.80;;;-142.21;77.59;112049.66;5113008;28;20223;-72
2022/07/23 03:44:37;;;;;;;8.23;5.70;;;26.40;59.00;;;-142.21;77.98;112049.66;5113503;28;20235;-71
2022/07/23 03:47:06;;;;;;;6.57;5.87;;;26.30;59.00;;;-142.21;78.03;112049.66;5113463;28;20200;-72
2022/07/23 03:49:34;;;;;;;6.57;6.07;;;26.30;59.20;;;-142.21;78.29;112049.66;5113283;28;20571;-71
2022/07/23 03:52:02;;;;;;;7.17;6.47;;;26.30;59.40;;;-142.21;79.41;112049.66;5113143;28;20214;-71
2022/07/23 03:54:29;;;;;;;7.23;6.60;;;26.20;59.50;;;-142.21;79.69;112049.66;5113128;28;20224;-71
2022/07/23 03:56:56;;;;;;;6.60;6.00;;;26.10;59.70;;;-142.21;80.58;112049.66;5112506;28;20196;-71
2022/07/23 03:59:25;;;;;;;7.33;6.63;;;26.10;60.00;;;-142.21;81.14;112049.66;5113241;28;20228;-71
2022/07/23 04:01:52;;;;;;;7.27;6.57;;;26.00;60.40;;;-142.21;81.22;112049.66;5113143;28;20630;-73
2022/07/23 04:04:19;;;;;;;7.17;6.43;;;26.00;60.40;;;-142.21;80.54;112049.66;5113520;28;20550;-71
2022/07/23 04:06:46;;;;;;;9.03;6.60;;;26.00;60.80;;;-142.21;80.42;112049.66;5112158;28;20200;-72
2022/07/23 04:09:13;;;;;;;6.03;5.53;;;26.00;60.10;;;-142.21;80.13;112049.66;5111778;28;20204;-73
2022/07/23 04:11:40;;;;;;;7.50;5.30;;;26.00;60.00;;;-142.21;74.27;112049.66;5112743;28;20238;-71
2022/07/23 04:14:08;;;;;;;5.37;4.80;;;26.10;59.00;;;-142.21;69.44;112049.66;5112009;28;20282;-72
2022/07/23 04:16:38;;;;;;;6.73;5.00;;;26.00;57.20;;;-142.21;70.42;112049.66;5112756;28;20196;-71
2022/07/23 04:19:05;;;;;;;5.60;5.00;;;26.00;57.90;;;-142.21;71.69;112049.66;5112329;28;20195;-71
2022/07/23 04:21:33;;;;;;;7.07;4.90;;;26.10;57.50;;;-142.21;72.80;112049.66;5112532;28;20706;-72
2022/07/23 04:24:00;;;;;;;6.63;4.90;;;26.10;57.80;;;-142.21;73.99;112049.66;5111901;28;20196;-71
2022/07/23 04:26:27;;;;;;;4.90;4.43;;;26.10;58.00;;;-142.21;74.15;112049.66;5113186;28;20206;-72
2022/07/23 04:28:54;;;;;;;5.67;4.90;;;26.10;58.10;;;-142.21;74.88;112049.66;5112456;28;20196;-71
2022/07/23 04:31:21;;;;;;;5.40;4.90;;;26.10;58.10;;;-142.21;75.27;112049.66;5112324;28;20227;-71
2022/07/23 04:33:49;;;;;;;5.70;5.20;;;26.10;58.30;;;-142.21;77.44;112049.66;5112742;28;20223;-71
2022/07/23 04:36:17;;;;;;;7.77;4.97;;;26.10;58.90;;;-142.21;78.14;112049.66;5111327;28;20278;-71
2022/07/23 04:38:44;;;;;;;5.00;4.43;;;26.10;59.80;;;-142.21;75.40;112049.66;5110386;28;20197;-72
2022/07/23 04:41:11;;;;;;;7.47;4.70;;;26.10;58.10;;;-142.21;77.63;112049.66;5112486;28;20206;-71
2022/07/23 04:43:38;;;;;;;5.07;4.27;;;26.10;58.80;;;-142.21;74.90;112049.66;5112964;28;20206;-71
2022/07/23 04:46:06;;;;;;;5.20;4.70;;;26.10;58.20;;;-142.21;73.86;112049.66;5112266;28;20296;-71
2022/07/23 04:48:33;;;;;;;6.63;4.60;;;26.10;58.10;;;-142.21;74.60;112049.66;5113089;28;20203;-71
2022/07/23 04:51:01;;;;;;;5.70;4.50;;;25.90;57.90;;;-142.21;75.65;112049.66;5111935;28;20202;-72
2022/07/23 04:53:29;;;;;;;5.60;4.40;;;25.80;58.40;;;-142.21;75.69;112049.66;5112877;28;20611;-72
2022/07/23 04:55:56;;;;;;;7.83;5.80;;;25.80;58.50;;;-142.21;78.50;112049.66;5112273;28;20705;-72
2022/07/23 04:58:23;;;;;;;6.50;5.27;;;25.80;59.20;;;-142.21;77.94;112049.66;5116698;28;20552;-72
2022/07/23 05:00:50;;;;;;;4.90;4.43;;;25.90;59.40;;;-142.21;77.70;112049.66;5111884;28;20554;-71
2022/07/23 05:03:18;;;;;;;5.50;5.00;;;25.90;59.40;;;-142.21;80.75;112049.66;5116043;28;20251;-72
2022/07/23 05:05:45;;;;;;;7.17;5.47;;;25.90;60.60;;;-142.21;83.52;112049.66;5116509;28;20203;-71
2022/07/23 05:08:14;;;;;;;8.57;5.43;;;25.80;61.60;;;-142.21;84.49;112049.66;5115383;28;20294;-71
2022/07/23 05:10:42;;;;;;;6.20;5.50;;;25.80;62.00;;;-142.21;85.01;112049.66;5116477;28;20206;-71
2022/07/23 05:13:09;;;;;;;5.60;5.10;;;25.80;62.50;;;-142.21;86.01;112049.66;5115505;28;20282;-72
2022/07/23 05:15:36;;;;;;;6.77;5.23;;;25.80;62.90;;;-142.21;86.05;112049.66;5116257;28;20228;-71
2022/07/23 05:18:04;;;;;;;5.57;5.07;;;25.80;62.70;;;-142.21;87.76;112049.66;5115821;28;20214;-72
2022/07/23 05:20:31;;;;;;;5.87;5.07;;;25.80;63.40;;;-142.21;89.00;112049.66;5115786;28;20287;-71
2022/07/23 05:22:58;;;;;;;7.10;5.57;;;25.90;64.60;;;-142.21;88.46;112049.66;5115562;28;20703;-72
2022/07/23 05:25:27;;;;;;;5.80;5.23;;;25.90;65.10;;;-142.21;89.86;112049.66;5115713;28;20240;-70
2022/07/23 05:27:54;;;;;;;5.33;4.40;;;25.80;65.00;;;-142.21;91.67;112049.66;5115862;28;20282;-71
2022/07/23 05:30:22;;;;;;;7.60;5.83;;;25.80;65.80;;;-142.21;91.24;112049.66;5115843;28;20602;-71
2022/07/23 05:32:49;;;;;;;5.97;4.87;;;25.90;65.80;;;-142.21;91.57;112049.66;5116396;28;20227;-71
2022/07/23 05:35:16;;;;;;;5.70;5.20;;;25.90;65.80;;;-142.21;91.29;112049.66;5106990;28;20323;-71
2022/07/23 05:37:43;;;;;;;6.07;5.47;;;25.90;66.00;;;-142.21;91.94;112049.66;5104818;28;20227;-71
2022/07/23 05:40:12;;;;;;;6.27;5.67;;;25.90;65.80;;;-142.21;89.96;112049.66;5115421;28;20282;-71
2022/07/23 05:42:42;;;;;;;5.93;5.37;;;25.80;65.50;;;-142.21;89.96;112049.66;5116161;28;20224;-70
2022/07/23 05:45:11;;;;;;;5.97;5.30;;;25.70;66.60;;;-142.21;91.34;112049.66;5115455;28;20204;-73
2022/07/23 05:47:43;;;;;;;5.60;5.10;;;25.70;66.10;;;-142.21;92.96;112049.66;5115557;28;20286;-71
2022/07/23 05:50:14;;;;;;;6.20;4.97;;;25.80;67.20;;;-142.21;91.61;112049.66;5114561;28;20291;-71
2022/07/23 05:52:43;;;;;;;5.73;5.23;;;25.80;66.40;;;-142.21;92.63;112049.66;5115772;28;20651;-71
2022/07/23 05:55:13;;;;;;;6.10;5.50;;;25.90;66.50;;;-142.21;92.61;112049.66;5114926;28;20639;-71
2022/07/23 05:57:42;;;;;;;6.30;5.53;;;25.90;66.90;;;-142.21;92.63;112049.66;5116105;28;20211;-72
2022/07/23 06:00:11;;;;;;;6.77;5.20;;;25.90;66.90;;;-142.21;92.71;112049.66;5114918;28;20628;-71
2022/07/23 06:02:39;;;;;;;6.63;5.43;;;25.90;66.80;;;-142.21;93.01;112049.66;5115454;28;20223;-72
2022/07/23 06:05:08;;;;;;;6.03;5.37;;;25.90;67.20;;;-142.21;94.03;112049.66;5115067;28;20529;-72
2022/07/23 06:07:35;;;;;;;6.03;5.33;;;25.90;67.50;;;-142.21;94.49;112049.66;5115131;28;20235;-72
2022/07/23 06:10:04;;;;;;;6.40;5.80;;;25.90;67.60;;;-142.21;96.34;112049.66;5114667;28;20203;-72
2022/07/23 06:12:31;;;;;;;7.23;6.53;;;25.90;68.20;;;-142.21;96.92;112049.66;5115602;28;20207;-72
2022/07/23 06:15:00;;;;;;;6.47;5.77;;;25.80;70.30;;;-142.21;98.22;112049.66;5114944;28;20609;-72
2022/07/23 06:17:27;;;;;;;6.43;5.80;;;25.80;70.30;;;-142.21;98.47;112049.66;5115194;28;20282;-71
2022/07/23 06:19:56;;;;;;;7.27;6.33;;;25.80;70.30;;;-142.21;98.02;112049.66;5114466;28;20199;-71
2022/07/23 06:22:23;;;;;;;8.53;6.47;;;25.80;70.20;;;-142.21;95.24;112049.66;5115318;28;20212;-72
2022/07/23 06:24:52;;;;;;;7.37;6.67;;;25.70;69.30;;;-142.21;96.32;112049.66;5115352;28;20295;-71
2022/07/23 06:27:19;;;;;;;7.50;6.70;;;25.60;69.70;;;-142.21;96.89;112049.66;5114892;28;20668;-71
2022/07/23 06:29:46;;;;;;;8.20;6.50;;;25.50;70.10;;;-142.21;99.32;112049.66;5114930;28;20660;-72
2022/07/23 06:32:15;;;;;;;7.17;6.47;;;25.60;71.30;;;-142.21;100.00;112049.66;5113641;28;20235;-71
2022/07/23 06:34:42;;;;;;;6.93;6.23;;;25.70;72.00;;;-142.21;99.91;112049.66;5115128;28;20203;-72
2022/07/23 06:37:09;;;;;;;7.10;6.40;;;25.70;71.70;;;-142.21;100.00;112049.66;5114141;28;20204;-71
2022/07/23 06:39:36;;;;;;;7.23;6.50;;;25.70;73.00;;;-142.21;100.00;112049.66;5114861;28;20207;-71
2022/07/23 06:42:04;;;;;;;7.10;6.40;;;25.80;72.40;;;-142.21;97.93;112049.66;5114107;28;20226;-71
2022/07/23 06:44:31;;;;;;;7.67;6.83;;;25.80;71.00;;;-142.21;98.00;112049.66;5115044;28;20539;-72
2022/07/23 06:47:01;;;;;;;6.10;5.50;;;25.80;70.90;;;-142.21;98.71;112049.66;5113541;28;20206;-71
2022/07/23 06:49:30;;;;;;;7.07;6.37;;;25.90;71.00;;;-142.21;100.00;112049.66;5114267;28;20304;-72
2022/07/23 06:51:57;;;;;;;6.77;6.10;;;26.00;71.90;;;-142.21;100.00;112049.66;5113655;28;20202;-71
2022/07/23 06:54:24;;;;;;;7.77;6.77;;;26.10;71.60;;;-142.21;100.00;112049.66;5114769;28;20223;-72
2022/07/23 06:56:51;;;;;;;8.33;7.17;;;26.20;72.30;;;-142.21;100.00;112049.66;5114498;28;20199;-71
2022/07/23 06:59:18;;;;;;;7.40;6.70;;;26.20;73.00;;;-142.21;100.00;112049.66;5113869;28;20283;-71
2022/07/23 07:01:46;;;;;;;7.80;7.00;;;26.30;73.30;;;-142.21;100.00;112049.66;5113861;28;20192;-72
2022/07/23 07:04:13;;;;;;;7.20;6.57;;;26.30;73.40;;;-142.21;100.00;112049.66;5113632;28;20257;-71
2022/07/23 07:06:41;;;;;;;7.60;6.87;;;26.40;73.50;;;-142.21;100.00;112049.66;5114144;28;20231;-72
2022/07/23 07:09:09;;;;;;;6.40;5.73;;;26.40;72.90;;;-142.21;100.00;112049.66;5113502;28;20286;-71
2022/07/23 07:11:36;;;;;;;6.83;6.17;;;26.50;72.20;;;-142.21;99.35;112049.66;5114292;28;20585;-72
2022/07/23 07:14:04;;;;;;;6.70;5.93;;;26.50;71.20;;;-142.21;98.77;112049.66;5113728;28;20217;-71
2022/07/23 07:16:31;;;;;;;6.70;6.10;;;26.50;71.20;;;-142.21;92.88;112049.66;5114180;28;20196;-71
2022/07/23 07:18:58;;;;;;;6.80;6.07;;;26.50;68.70;;;-142.21;93.57;112049.66;5112346;28;20207;-71
2022/07/23 07:21:25;;;;;;;6.00;5.40;;;26.40;67.90;;;-142.21;95.53;112049.66;5114069;28;20290;-72
2022/07/23 07:23:54;;;;;;;7.47;6.47;;;26.40;68.60;;;-142.21;94.95;112049.66;5112927;28;20226;-71
2022/07/23 07:26:21;;;;;;;6.97;6.30;;;26.30;68.60;;;-142.21;95.40;112049.66;5114194;28;20209;-71
2022/07/23 07:28:48;;;;;;;8.53;6.40;;;26.30;69.70;;;-142.21;95.86;112049.66;5114119;28;20204;-71
2022/07/23 07:31:15;;;;;;;7.30;6.60;;;26.30;69.30;;;-142.21;95.30;112049.66;5112659;28;20365;-72
2022/07/23 07:33:43;;;;;;;6.97;6.23;;;26.40;69.40;;;-142.21;95.73;112049.66;5113744;28;20199;-72
2022/07/23 07:36:10;;;;;;;7.60;5.80;;;26.40;69.60;;;-142.21;96.29;112049.66;5113036;28;20279;-71
2022/07/23 07:38:40;;;;;;;7.43;6.37;;;26.40;69.30;;;-142.21;95.07;112049.66;5113379;28;20699;-72
2022/07/23 07:41:10;;;;;;;7.17;5.60;;;26.50;69.30;;;-142.21;95.79;112049.66;5113199;28;20204;-72
2022/07/23 07:43:37;;;;;;;6.23;5.63;;;26.50;68.70;;;-142.21;93.94;112049.66;5113588;28;20224;-71
2022/07/23 07:46:05;;;;;;;6.80;5.67;;;26.60;68.30;;;-142.21;91.86;112049.66;5112761;28;20291;-73
2022/07/23 07:48:32;;;;;;;6.00;5.33;;;26.60;67.00;;;-142.21;89.37;112049.66;5113172;28;20284;-72
2022/07/23 07:50:59;;;;;;;6.10;5.50;;;26.70;65.60;;;-142.21;88.52;112049.66;5110583;28;20282;-72
2022/07/23 07:53:26;;;;;;;6.40;5.60;;;26.70;64.80;;;-142.21;87.41;112049.66;5113265;28;20223;-72
2022/07/23 07:55:54;;;;;;;9.10;5.83;;;26.60;64.20;;;-142.21;90.18;112049.66;5113566;28;20260;-71
2022/07/23 07:58:22;;;;;;;5.73;5.23;;;26.80;65.30;;;-142.21;90.47;112049.66;5112860;28;20234;-71
2022/07/23 08:00:49;;;;;;;6.57;5.67;;;26.90;65.40;;;-142.21;90.18;112049.66;5112932;28;20196;-73
2022/07/23 08:03:16;;;;;;;6.47;5.87;;;27.00;65.60;;;-142.21;88.12;112049.66;5112454;28;20234;-73
2022/07/23 08:05:47;;;;;;;6.13;5.53;;;27.20;65.20;;;-142.21;90.79;112049.66;5112835;28;20718;-72
2022/07/23 08:08:15;;;;;;;6.03;5.47;;;27.40;65.30;;;-142.21;90.18;112049.66;5112534;28;20192;-72
2022/07/23 08:10:45;;;;;;;6.17;5.53;;;27.60;65.70;;;-142.21;78.17;112049.66;5101078;28;20201;-72
2022/07/23 08:13:16;;;;;;;6.47;5.87;;;27.50;60.00;;;-142.21;84.18;112049.66;5111917;28;20196;-71
2022/07/23 08:15:45;;;;;;;5.23;4.83;;;27.50;61.90;;;-142.21;83.20;112049.66;5112407;28;20210;-71
2022/07/23 08:18:12;;;;;;;6.40;5.80;;;27.70;62.40;;;-142.21;77.71;112049.66;5112182;28;20204;-71
2022/07/23 08:20:39;;;;;;;5.67;5.17;;;27.70;60.50;;;-142.21;77.47;112049.66;5113308;28;20304;-71
2022/07/23 08:23:10;;;;;;;5.77;5.13;;;27.70;59.50;;;-142.21;80.73;112049.66;5112461;28;20220;-72
2022/07/23 08:25:40;;;;;;;5.73;5.23;;;27.90;60.30;;;-142.21;75.81;112049.66;5113069;28;20388;-71
2022/07/23 08:28:09;;;;;;;6.77;5.37;;;27.90;58.70;;;-142.21;75.57;112049.66;5111783;28;20205;-70
2022/07/23 08:30:39;;;;;;;6.57;5.90;;;27.90;58.40;;;-142.21;76.30;112049.66;5111352;28;20235;-70
2022/07/23 08:33:12;;;;;;;6.13;5.53;;;27.90;58.50;;;-142.21;75.65;112049.66;5111934;28;20265;-71
2022/07/23 08:35:42;;;;;;;6.80;6.03;;;28.00;58.20;;;-142.21;74.34;112049.66;5113176;28;20190;-71
2022/07/23 08:38:11;;;;;;;5.93;5.40;;;28.10;57.80;;;-142.21;74.87;112049.66;5111732;28;20208;-72
2022/07/23 08:40:41;;;;;;;5.53;5.03;;;28.10;57.90;;;-142.21;73.70;112049.66;5112936;28;20197;-72
2022/07/23 08:43:15;;;;;;;6.20;5.60;;;28.30;57.60;;;-142.21;74.35;112049.66;5111355;28;20221;-71
2022/07/23 08:45:45;;;;;;;5.87;5.37;;;28.40;57.70;;;-142.21;71.55;112049.66;5112564;28;20186;-72
2022/07/23 08:48:16;;;;;;;6.30;5.37;;;28.40;56.90;;;-142.21;72.25;112049.66;5112285;28;20277;-71
2022/07/23 08:50:46;;;;;;;6.33;5.83;;;28.50;56.90;;;-142.21;73.37;112049.66;5109320;28;20661;-72
2022/07/23 08:53:15;;;;;;;6.07;5.53;;;28.70;57.10;;;-142.21;71.29;112049.66;5112391;28;20186;-73
2022/07/23 08:55:46;;;;;;;7.37;5.70;;;28.70;56.40;;;-142.21;68.87;112049.66;5112303;28;20244;-70
2022/07/23 08:58:13;;;;;;;5.43;4.93;;;28.80;55.90;;;-142.21;66.51;112049.66;5111643;28;20184;-71
2022/07/23 09:00:41;;;;;;;5.63;5.13;;;28.90;55.60;;;-142.21;62.81;112049.66;5112304;28;20672;-72
2022/07/23 09:03:17;;;;;;;5.77;5.27;;;29.00;54.60;;;-142.21;69.00;112049.66;5111564;28;20622;-70
2022/07/23 09:05:45;;;;;;;7.43;5.80;;;29.10;55.70;;;-142.21;69.11;112049.66;5112636;28;20294;-70
2022/07/23 09:08:15;;;;;;;6.73;6.03;;;29.20;55.50;;;-142.21;66.63;112049.66;5111853;28;20232;-70
2022/07/23 09:10:49;;;;;;;6.47;5.80;;;29.30;54.90;;;-142.21;67.14;112049.66;5112532;28;20253;-70
2022/07/23 09:13:28;;;;;;;8.40;6.37;;;29.20;55.80;;;-142.21;68.36;112049.66;5111677;28;20595;-70
2022/07/23 09:15:58;;;;;;;6.23;5.63;;;29.20;55.50;;;-142.21;67.35;112049.66;5111534;28;20193;-73
2022/07/23 09:18:51;;;;;;;6.50;5.90;;;29.30;55.50;;;-142.21;67.34;112049.66;5112298;28;20191;-74
2022/07/23 09:21:24;;;;;;;6.63;5.90;;;29.30;55.20;;;-142.21;70.42;112049.66;5110511;28;20289;-75
2022/07/23 09:23:58;;;;;;;6.57;5.73;;;29.40;55.90;;;-142.21;68.83;112049.66;5112047;28;20210;-74
2022/07/23 09:26:30;;;;;;;5.80;5.30;;;29.50;55.60;;;-142.21;68.01;112049.66;5091944;28;20277;-75
2022/07/23 09:29:02;;;;;;;6.53;5.43;;;29.50;55.30;;;-142.21;67.75;112049.66;5109412;28;20217;-75
2022/07/23 09:31:42;;;;;;;6.93;5.90;;;29.60;55.50;;;-142.21;60.53;112049.66;5110776;28;20261;-74
2022/07/23 09:34:16;;;;;;;6.87;5.67;;;29.70;53.50;;;-142.21;55.03;112049.66;5112040;28;20190;-75
2022/07/23 09:36:45;;;;;;;5.67;5.17;;;29.70;51.70;;;-142.21;55.99;112049.66;5112224;28;20385;-75
2022/07/23 09:39:17;;;;;;;5.60;5.10;;;29.60;52.20;;;-142.21;54.91;112049.66;5110765;28;20281;-74
2022/07/23 09:41:47;;;;;;;5.27;4.77;;;29.70;52.30;;;-142.21;57.83;112049.66;5112040;28;20245;-74
2022/07/23 09:44:17;;;;;;;5.60;5.10;;;29.80;52.70;;;-142.21;59.65;112049.66;5115339;28;20313;-75
2022/07/23 09:46:46;;;;;;;5.73;5.23;;;30.10;53.00;;;-142.21;58.91;112049.66;5115844;28;20199;-75
2022/07/23 09:49:21;;;;;;;5.43;4.93;;;30.30;52.70;;;-142.21;51.53;112049.66;5115139;28;20295;-76
2022/07/23 09:51:56;;;;;;;5.93;5.40;;;30.50;50.50;;;-142.21;49.42;112049.66;5115428;28;20275;-74
2022/07/23 09:54:36;;;;;;;5.17;4.67;;;30.50;49.90;;;-142.21;50.25;112049.66;5115305;28;20215;-75
2022/07/23 09:57:08;;;;;;;5.77;5.03;;;30.60;50.00;;;-142.21;50.42;112049.66;5115207;28;20245;-75
2022/07/23 09:59:38;;;;;;;5.30;4.80;;;30.80;50.20;;;-142.21;52.37;112049.66;5115234;28;20271;-74
2022/07/23 10:02:07;;;;;;;6.33;5.00;;;31.00;50.50;;;-142.21;50.29;112049.66;5114897;28;20225;-74
2022/07/23 10:04:36;;;;;;;6.50;5.10;;;31.00;49.60;;;-142.21;49.56;112049.66;5115574;28;20223;-74